createdAt,value
2022-11-08T00:04:28.937Z,9.3
2022-11-08T00:09:51.357Z,9.2
2022-11-08T00:14:56.831Z,9.3
2022-11-08T00:20:34.016Z,9.3
2022-11-08T00:26:11.620Z,9.3
2022-11-08T00:31:33.240Z,9.2
2022-11-08T00:37:10.022Z,9.2
2022-11-08T00:42:48.351Z,9.1
2022-11-08T00:48:25.143Z,9.2
2022-11-08T00:54:01.877Z,9.1
2022-11-08T01:00:02.247Z,9.1
2022-11-08T01:05:40.136Z,9.1
2022-11-08T01:11:01.647Z,9
2022-11-08T01:16:24.024Z,9
2022-11-08T01:21:46.152Z,9
2022-11-08T01:27:23.391Z,9
2022-11-08T01:33:01.142Z,8.9
2022-11-08T01:38:39.171Z,8.9
2022-11-08T01:49:24.090Z,8.9
2022-11-08T01:54:45.868Z,8.9
2022-11-08T02:00:21.608Z,8.9
2022-11-08T02:05:59.743Z,8.9
2022-11-08T02:11:20.499Z,9
2022-11-08T02:17:02.777Z,9.1
2022-11-08T02:22:25.327Z,9.2
2022-11-08T02:28:02.560Z,9.3
2022-11-08T02:33:23.322Z,9.4
2022-11-08T02:39:01.761Z,9.4
2022-11-08T02:44:38.016Z,9.5
2022-11-08T02:50:17.922Z,9.5
2022-11-08T02:55:55.641Z,9.6
2022-11-08T03:01:16.522Z,9.6
2022-11-08T03:06:54.414Z,9.6
2022-11-08T03:12:01.932Z,9.6
2022-11-08T03:17:39.729Z,9.6
2022-11-08T03:23:21.075Z,9.5
2022-11-08T03:28:59.833Z,9.4
2022-11-08T03:39:57.314Z,9.4
2022-11-08T03:45:19.416Z,9.6
2022-11-08T03:50:56.466Z,9.6
2022-11-08T03:56:32.903Z,9.6
2022-11-08T04:02:11.242Z,9.6
2022-11-08T04:07:33.067Z,9.7
2022-11-08T04:13:09.961Z,9.6
2022-11-08T04:18:53.136Z,9.7
2022-11-08T04:24:30.650Z,9.8
2022-11-08T04:29:52.169Z,9.8
2022-11-08T04:35:14.320Z,9.6
2022-11-08T04:40:36.851Z,9.6
2022-11-08T04:45:46.164Z,9.6
2022-11-08T04:51:30.560Z,9.6
2022-11-08T04:57:07.406Z,9.4
2022-11-08T05:02:21.074Z,9.6
2022-11-08T05:07:43.796Z,9.6
2022-11-08T05:13:26.821Z,9.4
2022-11-08T05:18:49.073Z,9.6
2022-11-08T05:24:34.023Z,9.4
2022-11-08T05:30:14.901Z,9.6
2022-11-08T05:35:51.710Z,9.4
2022-11-08T05:41:39.039Z,9.6
2022-11-08T05:47:00.616Z,9.6
2022-11-08T05:52:21.653Z,9.8
2022-11-08T05:58:00.277Z,9.9
2022-11-08T06:03:40.470Z,10.1
2022-11-08T06:09:22.351Z,10.2
2022-11-08T06:15:01.627Z,10.3
2022-11-08T06:20:39.434Z,10.3
2022-11-08T06:26:20.307Z,10.5
2022-11-08T06:31:59.891Z,10.6
2022-11-08T06:37:22.741Z,10.7
2022-11-08T06:42:49.253Z,10.9
2022-11-08T06:48:12.893Z,11
2022-11-08T06:53:55.458Z,11.3
2022-11-08T06:59:37.633Z,11.4
2022-11-08T07:05:17.551Z,11.5
2022-11-08T07:10:41.931Z,11.6
2022-11-08T07:16:18.907Z,11.6
2022-11-08T07:21:57.482Z,11.6
2022-11-08T07:27:35.308Z,11.6
2022-11-08T07:33:14.112Z,11.7
2022-11-08T07:38:36.759Z,11.8
2022-11-08T07:44:41.888Z,11.9
2022-11-08T07:50:18.316Z,12
2022-11-08T07:56:00.523Z,12.1
2022-11-08T08:01:38.250Z,12.1
2022-11-08T08:07:17.058Z,12.3
2022-11-08T08:13:00.800Z,12.6
2022-11-08T08:18:38.345Z,12.8
2022-11-08T08:24:02.124Z,12.7
2022-11-08T08:29:40.010Z,12.7
2022-11-08T08:35:52.625Z,12.8
2022-11-08T08:41:36.870Z,12.9
2022-11-08T08:47:16.964Z,13
2022-11-08T08:52:54.256Z,13.2
2022-11-08T08:58:31.498Z,13.2
2022-11-08T09:06:42.428Z,13.5
2022-11-08T09:12:05.719Z,13.9
2022-11-08T09:17:29.748Z,13.7
2022-11-08T09:22:53.148Z,14
2022-11-08T09:28:14.697Z,14.2
2022-11-08T09:34:01.556Z,14.4
2022-11-08T09:39:31.995Z,14.3
2022-11-08T09:44:55.176Z,14.7
2022-11-08T09:50:17.454Z,14.6
2022-11-08T09:55:57.754Z,14.6
2022-11-08T10:01:41.001Z,14.8
2022-11-08T10:07:19.914Z,15.3
2022-11-08T10:12:43.738Z,15.4
2022-11-08T10:18:32.687Z,15.4
2022-11-08T10:23:54.956Z,16.1
2022-11-08T10:29:35.772Z,16.8
2022-11-08T10:35:13.098Z,16.6
2022-11-08T10:40:51.053Z,17.1
2022-11-08T10:46:34.220Z,17.5
2022-11-08T10:52:14.120Z,17.4
2022-11-08T10:57:51.438Z,17.3
2022-11-08T11:03:31.998Z,19.3
2022-11-08T11:09:10.047Z,18.1
2022-11-08T11:20:14.378Z,16.8
2022-11-08T11:25:52.023Z,16.5
2022-11-08T11:31:29.711Z,16.9
2022-11-08T11:37:08.088Z,16.6
2022-11-08T11:43:12.367Z,16.4
2022-11-08T11:48:54.144Z,15.9
2022-11-08T11:54:38.086Z,15.9
2022-11-08T12:00:16.054Z,16.7
2022-11-08T12:05:57.415Z,17.5
2022-11-08T12:11:21.202Z,18.4
2022-11-08T12:17:02.718Z,18.3
2022-11-08T12:22:45.387Z,18.4
2022-11-08T12:28:23.668Z,19.7
2022-11-08T12:34:03.271Z,19.8
2022-11-08T12:39:40.379Z,18.9
2022-11-08T12:45:18.694Z,19.2
2022-11-08T12:50:58.891Z,19.1
2022-11-08T12:56:38.133Z,18.5
2022-11-08T13:02:17.710Z,17.8
2022-11-08T13:08:00.737Z,17.8
2022-11-08T13:13:37.446Z,17.2
2022-11-08T13:19:16.212Z,18
2022-11-08T13:25:17.739Z,18.5
2022-11-08T13:36:21.031Z,18.4
2022-11-08T13:42:03.026Z,18.3
2022-11-08T13:47:40.041Z,18.1
2022-11-08T13:53:19.233Z,17.9
2022-11-08T13:58:57.407Z,17.4
2022-11-08T14:04:35.864Z,17.6
2022-11-08T14:10:22.805Z,17.3
2022-11-08T14:16:00.580Z,17.4
2022-11-08T14:21:37.321Z,16.9
2022-11-08T14:27:22.401Z,16.8
2022-11-08T14:33:06.280Z,16.4
2022-11-08T14:38:46.510Z,16.1
2022-11-08T14:44:24.837Z,15.6
2022-11-08T14:50:03.053Z,15.3
2022-11-08T14:55:31.310Z,15.1
2022-11-08T15:01:09.654Z,14.8
2022-11-08T15:06:31.958Z,14.6
2022-11-08T15:12:09.986Z,14.3
2022-11-08T15:17:53.707Z,14
2022-11-08T15:23:31.314Z,13.8
2022-11-08T15:29:10.969Z,13.6
2022-11-08T15:34:53.873Z,13.5
2022-11-08T15:40:20.089Z,13.4
2022-11-08T15:45:41.872Z,13.1
2022-11-08T15:51:20.045Z,13
2022-11-08T15:56:57.652Z,12.8
2022-11-08T16:02:35.995Z,12.6
2022-11-08T16:07:58.843Z,12.4
2022-11-08T16:13:41.177Z,12.3
2022-11-08T16:19:08.764Z,12.2
2022-11-08T16:24:52.934Z,12.3
2022-11-08T16:30:14.386Z,12.1
2022-11-08T16:35:52.033Z,12
2022-11-08T16:41:14.449Z,11.9
2022-11-08T16:47:10.097Z,11.6
2022-11-08T16:52:48.267Z,11.6
2022-11-08T16:58:57.237Z,11.6
2022-11-08T17:04:19.881Z,11.4
2022-11-08T17:09:47.477Z,11.2
2022-11-08T17:15:26.021Z,11.1
2022-11-08T17:21:38.159Z,11.2
2022-11-08T17:27:25.135Z,11.2
2022-11-08T17:33:03.041Z,11.2
2022-11-08T17:38:42.265Z,11.3
2022-11-08T17:44:23.667Z,11.2
2022-11-08T17:50:01.899Z,11.1
2022-11-08T17:55:43.054Z,10.9
2022-11-08T18:01:04.601Z,10.9
2022-11-08T18:06:44.835Z,10.9
2022-11-08T18:12:26.810Z,11
2022-11-08T18:17:52.976Z,11.1
2022-11-08T18:23:00.613Z,11.1
2022-11-08T18:28:28.656Z,11.1
2022-11-08T18:34:11.915Z,11
2022-11-08T18:39:52.906Z,10.9
2022-11-08T18:45:31.131Z,10.9
2022-11-08T18:51:15.010Z,10.9
2022-11-08T18:56:52.712Z,11
2022-11-08T19:02:35.603Z,10.9
2022-11-08T19:07:45.442Z,10.6
2022-11-08T19:13:23.090Z,10.6
2022-11-08T19:18:44.718Z,10.6
2022-11-08T19:24:21.533Z,10.5
2022-11-08T19:30:01.849Z,10.4
2022-11-08T19:35:24.443Z,10.4
2022-11-08T19:41:06.543Z,10.3
2022-11-08T19:46:14.120Z,10.1
2022-11-08T19:51:36.859Z,9.9
2022-11-08T19:57:04.479Z,9.8
2022-11-08T20:02:28.306Z,9.8
2022-11-08T20:07:51.212Z,9.6
2022-11-08T20:13:14.139Z,9.6
2022-11-08T20:18:22.528Z,9.5
2022-11-08T20:24:00.424Z,9.4
2022-11-08T20:29:29.676Z,9.4
2022-11-08T20:35:11.913Z,9.5
2022-11-08T20:40:37.102Z,9.6
2022-11-08T20:46:04.788Z,9.6
2022-11-08T20:51:52.553Z,9.6
2022-11-08T20:57:35.408Z,9.5
2022-11-08T21:03:35.664Z,9.4
2022-11-08T21:11:50.828Z,9.2
2022-11-08T21:30:39.083Z,8.9
2022-11-08T21:36:17.670Z,8.8
2022-11-08T21:41:54.434Z,8.6
2022-11-08T21:47:36.508Z,8.4
2022-11-08T21:53:19.533Z,8.3
2022-11-08T21:59:03.303Z,8.3
2022-11-08T22:04:10.726Z,8.3
2022-11-08T22:09:39.700Z,8.3
2022-11-08T22:15:16.458Z,8.3
2022-11-08T22:21:01.148Z,8.2
2022-11-08T22:26:07.928Z,8.1
2022-11-08T22:31:13.989Z,8
2022-11-08T22:36:37.780Z,7.9
2022-11-08T22:42:02.365Z,7.7
2022-11-08T22:47:24.255Z,7.6
2022-11-08T22:52:50.253Z,7.3
2022-11-08T22:57:41.698Z,7.4
2022-11-08T23:02:33.304Z,7.6
2022-11-08T23:07:56.116Z,7.7
2022-11-08T23:13:03.329Z,7.7
2022-11-08T23:23:47.561Z,7.6
2022-11-08T23:28:57.213Z,7.5
2022-11-08T23:33:47.663Z,7.6
2022-11-08T23:44:35.075Z,7.6
2022-11-08T23:49:56.234Z,7.6
2022-11-08T23:55:02.620Z,7.4
